sensor_id;sensor_type;location;lat;lon;timestamp;pressure;altitude;pressure_sealevel;temperature;humidity
69667;BME280;66534;52.370;4.832;2023-03-19T00:00:28;101014.88;;;10.67;100.00
69667;BME280;66534;52.370;4.832;2023-03-19T00:01:02;101012.13;;;10.70;100.00
69667;BME280;66534;52.370;4.832;2023-03-19T00:01:34;101017.97;;;10.77;100.00
69667;BME280;66534;52.370;4.832;2023-03-19T00:02:05;101016.25;;;10.76;100.00
69667;BME280;66534;52.370;4.832;2023-03-19T00:02:35;101016.25;;;10.76;100.00
69667;BME280;66534;52.370;4.832;2023-03-19T00:03:06;101022.44;;;10.75;100.00
69667;BME280;66534;52.370;4.832;2023-03-19T00:03:36;100837.34;;;9.64;100.00
69667;BME280;66534;52.370;4.832;2023-03-19T00:04:07;101021.59;;;10.75;100.00
69667;BME280;66534;52.370;4.832;2023-03-19T00:04:37;101009.44;;;10.72;100.00
69667;BME280;66534;52.370;4.832;2023-03-19T00:05:08;101018.97;;;10.75;100.00
69667;BME280;66534;52.370;4.832;2023-03-19T00:05:38;101018.09;;;10.74;100.00
69667;BME280;66534;52.370;4.832;2023-03-19T00:06:08;101031.72;;;10.82;100.00
69667;BME280;66534;52.370;4.832;2023-03-19T00:06:39;101021.22;;;10.82;100.00
69667;BME280;66534;52.370;4.832;2023-03-19T00:07:09;101018.69;;;10.81;100.00
69667;BME280;66534;52.370;4.832;2023-03-19T00:07:40;101021.31;;;10.81;100.00
69667;BME280;66534;52.370;4.832;2023-03-19T00:08:10;101020.25;;;10.85;100.00
69667;BME280;66534;52.370;4.832;2023-03-19T00:08:41;101026.69;;;10.78;100.00
69667;BME280;66534;52.370;4.832;2023-03-19T00:09:11;101026.09;;;10.71;100.00
69667;BME280;66534;52.370;4.832;2023-03-19T00:09:42;101025.88;;;10.55;100.00
69667;BME280;66534;52.370;4.832;2023-03-19T00:10:13;101030.28;;;10.55;100.00
69667;BME280;66534;52.370;4.832;2023-03-19T00:10:44;101026.72;;;10.56;100.00
69667;BME280;66534;52.370;4.832;2023-03-19T00:11:15;101028.97;;;10.65;100.00
69667;BME280;66534;52.370;4.832;2023-03-19T00:11:46;101037.88;;;10.61;100.00
69667;BME280;66534;52.370;4.832;2023-03-19T00:12:17;101033.44;;;10.63;100.00
69667;BME280;66534;52.370;4.832;2023-03-19T00:12:47;101034.16;;;10.66;100.00
69667;BME280;66534;52.370;4.832;2023-03-19T00:13:18;101030.75;;;10.64;100.00
69667;BME280;66534;52.370;4.832;2023-03-19T00:13:49;101033.38;;;10.64;100.00
69667;BME280;66534;52.370;4.832;2023-03-19T00:14:19;101028.00;;;10.67;100.00
69667;BME280;66534;52.370;4.832;2023-03-19T00:14:49;101029.78;;;10.67;100.00
69667;BME280;66534;52.370;4.832;2023-03-19T00:15:20;101038.03;;;10.78;100.00
69667;BME280;66534;52.370;4.832;2023-03-19T00:15:51;101036.28;;;10.79;100.00
69667;BME280;66534;52.370;4.832;2023-03-19T00:16:21;101032.19;;;10.71;100.00
69667;BME280;66534;52.370;4.832;2023-03-19T00:16:52;101035.03;;;10.67;100.00
69667;BME280;66534;52.370;4.832;2023-03-19T00:17:22;101030.88;;;10.61;100.00
69667;BME280;66534;52.370;4.832;2023-03-19T00:17:52;101037.09;;;10.59;100.00
69667;BME280;66534;52.370;4.832;2023-03-19T00:18:25;101030.63;;;10.67;100.00
69667;BME280;66534;52.370;4.832;2023-03-19T00:18:55;101033.38;;;10.64;100.00
69667;BME280;66534;52.370;4.832;2023-03-19T00:19:26;101041.44;;;10.60;100.00
69667;BME280;66534;52.370;4.832;2023-03-19T00:19:57;101038.56;;;10.66;100.00
69667;BME280;66534;52.370;4.832;2023-03-19T00:20:27;101033.47;;;10.61;100.00
69667;BME280;66534;52.370;4.832;2023-03-19T00:20:57;101036.09;;;10.61;100.00
69667;BME280;66534;52.370;4.832;2023-03-19T00:21:28;101040.38;;;10.64;100.00
69667;BME280;66534;52.370;4.832;2023-03-19T00:21:59;101037.03;;;10.60;100.00
69667;BME280;66534;52.370;4.832;2023-03-19T00:22:29;101035.25;;;10.61;100.00
69667;BME280;66534;52.370;4.832;2023-03-19T00:23:00;101038.69;;;10.63;100.00
69667;BME280;66534;52.370;4.832;2023-03-19T00:23:30;101042.94;;;10.65;100.00
69667;BME280;66534;52.370;4.832;2023-03-19T00:24:01;101036.09;;;10.61;100.00
69667;BME280;66534;52.370;4.832;2023-03-19T00:24:32;101039.78;;;10.57;100.00
69667;BME280;66534;52.370;4.832;2023-03-19T00:25:03;101038.94;;;10.57;100.00
69667;BME280;66534;52.370;4.832;2023-03-19T00:25:34;101042.41;;;10.57;100.00
69667;BME280;66534;52.370;4.832;2023-03-19T00:26:05;101040.66;;;10.58;100.00
69667;BME280;66534;52.370;4.832;2023-03-19T00:26:35;101042.25;;;10.62;100.00
69667;BME280;66534;52.370;4.832;2023-03-19T00:27:06;101035.22;;;10.62;100.00
69667;BME280;66534;52.370;4.832;2023-03-19T00:27:37;101039.66;;;10.60;100.00
69667;BME280;66534;52.370;4.832;2023-03-19T00:28:07;101041.31;;;10.63;100.00
69667;BME280;66534;52.370;4.832;2023-03-19T00:28:38;101039.16;;;10.72;100.00
69667;BME280;66534;52.370;4.832;2023-03-19T00:29:09;101041.13;;;10.67;100.00
69667;BME280;66534;52.370;4.832;2023-03-19T00:29:40;101043.97;;;10.61;100.00
69667;BME280;66534;52.370;4.832;2023-03-19T00:30:10;101039.28;;;10.69;100.00
69667;BME280;66534;52.370;4.832;2023-03-19T00:30:41;101044.47;;;10.71;100.00
69667;BME280;66534;52.370;4.832;2023-03-19T00:31:14;101042.16;;;10.63;100.00
69667;BME280;66534;52.370;4.832;2023-03-19T00:31:45;101048.38;;;10.61;100.00
69667;BME280;66534;52.370;4.832;2023-03-19T00:32:16;101045.72;;;10.62;100.00
69667;BME280;66534;52.370;4.832;2023-03-19T00:32:47;101048.19;;;10.65;100.00
69667;BME280;66534;52.370;4.832;2023-03-19T00:33:17;101041.53;;;10.57;100.00
69667;BME280;66534;52.370;4.832;2023-03-19T00:33:49;101043.09;;;10.62;100.00
69667;BME280;66534;52.370;4.832;2023-03-19T00:34:19;101047.66;;;10.57;100.00
69667;BME280;66534;52.370;4.832;2023-03-19T00:34:50;101044.13;;;10.58;100.00
69667;BME280;66534;52.370;4.832;2023-03-19T00:35:21;101046.06;;;10.75;100.00
69667;BME280;66534;52.370;4.832;2023-03-19T00:35:51;101047.94;;;10.71;100.00
69667;BME280;66534;52.370;4.832;2023-03-19T00:36:22;101045.38;;;10.70;100.00
69667;BME280;66534;52.370;4.832;2023-03-19T00:36:54;101049.75;;;10.69;100.00
69667;BME280;66534;52.370;4.832;2023-03-19T00:37:26;101045.25;;;10.73;100.00
69667;BME280;66534;52.370;4.832;2023-03-19T00:37:56;101040.00;;;10.73;100.00
69667;BME280;66534;52.370;4.832;2023-03-19T00:38:27;101052.19;;;10.74;100.00
69667;BME280;66534;52.370;4.832;2023-03-19T00:38:58;101045.44;;;10.68;100.00
69667;BME280;66534;52.370;4.832;2023-03-19T00:39:28;101046.25;;;10.70;100.00
69667;BME280;66534;52.370;4.832;2023-03-19T00:39:59;101043.81;;;10.66;100.00
69667;BME280;66534;52.370;4.832;2023-03-19T00:40:30;101050.63;;;10.70;100.00
69667;BME280;66534;52.370;4.832;2023-03-19T00:41:01;101053.31;;;10.68;100.00
69667;BME280;66534;52.370;4.832;2023-03-19T00:41:33;101045.19;;;10.75;100.00
69667;BME280;66534;52.370;4.832;2023-03-19T00:42:03;101060.25;;;10.69;100.00
69667;BME280;66534;52.370;4.832;2023-03-19T00:42:34;101047.88;;;10.73;100.00
69667;BME280;66534;52.370;4.832;2023-03-19T00:43:04;101049.72;;;10.71;100.00
69667;BME280;66534;52.370;4.832;2023-03-19T00:43:35;101048.00;;;10.70;100.00
69667;BME280;66534;52.370;4.832;2023-03-19T00:44:06;101050.69;;;10.68;100.00
69667;BME280;66534;52.370;4.832;2023-03-19T00:44:37;101046.16;;;10.72;100.00
69667;BME280;66534;52.370;4.832;2023-03-19T00:45:07;101047.13;;;10.69;100.00
69667;BME280;66534;52.370;4.832;2023-03-19T00:45:38;101051.53;;;10.69;100.00
69667;BME280;66534;52.370;4.832;2023-03-19T00:46:08;101052.72;;;10.62;100.00
69667;BME280;66534;52.370;4.832;2023-03-19T00:46:39;101049.22;;;10.61;100.00
69667;BME280;66534;52.370;4.832;2023-03-19T00:47:09;101042.16;;;10.63;100.00
69667;BME280;66534;52.370;4.832;2023-03-19T00:47:40;101055.28;;;10.63;100.00
69667;BME280;66534;52.370;4.832;2023-03-19T00:48:11;101052.72;;;10.62;100.00
69667;BME280;66534;52.370;4.832;2023-03-19T00:48:41;101049.84;;;10.68;100.00
69667;BME280;66534;52.370;4.832;2023-03-19T00:49:12;101052.47;;;10.68;100.00
69667;BME280;66534;52.370;4.832;2023-03-19T00:49:43;101054.44;;;10.63;100.00
69667;BME280;66534;52.370;4.832;2023-03-19T00:50:13;101057.06;;;10.63;100.00
69667;BME280;66534;52.370;4.832;2023-03-19T00:50:44;101054.44;;;10.63;100.00
69667;BME280;66534;52.370;4.832;2023-03-19T00:51:15;101054.53;;;10.60;100.00
69667;BME280;66534;52.370;4.832;2023-03-19T00:51:45;101057.28;;;10.57;100.00
69667;BME280;66534;52.370;4.832;2023-03-19T00:52:16;101059.97;;;10.55;100.00
69667;BME280;66534;52.370;4.832;2023-03-19T00:52:47;101054.81;;;10.54;100.00
69667;BME280;66534;52.370;4.832;2023-03-19T00:53:17;101061.50;;;10.61;100.00
69667;BME280;66534;52.370;4.832;2023-03-19T00:53:48;101051.31;;;10.53;100.00
69667;BME280;66534;52.370;4.832;2023-03-19T00:54:20;101058.75;;;10.64;100.00
69667;BME280;66534;52.370;4.832;2023-03-19T00:54:50;101055.41;;;10.60;100.00
69667;BME280;66534;52.370;4.832;2023-03-19T00:55:20;101059.88;;;10.58;100.00
69667;BME280;66534;52.370;4.832;2023-03-19T00:55:51;101063.53;;;10.54;100.00
69667;BME280;66534;52.370;4.832;2023-03-19T00:56:21;101058.28;;;10.54;100.00
69667;BME280;66534;52.370;4.832;2023-03-19T00:56:51;101056.63;;;10.52;100.00
69667;BME280;66534;52.370;4.832;2023-03-19T00:57:22;101059.69;;;10.63;100.00
69667;BME280;66534;52.370;4.832;2023-03-19T00:57:52;101055.34;;;10.62;100.00
69667;BME280;66534;52.370;4.832;2023-03-19T00:58:23;101057.91;;;10.63;100.00
69667;BME280;66534;52.370;4.832;2023-03-19T00:58:55;101056.41;;;10.58;100.00
69667;BME280;66534;52.370;4.832;2023-03-19T00:59:25;101059.91;;;10.57;100.00
69667;BME280;66534;52.370;4.832;2023-03-19T00:59:56;101057.38;;;10.55;100.00
69667;BME280;66534;52.370;4.832;2023-03-19T01:00:27;101056.25;;;10.61;100.00
69667;BME280;66534;52.370;4.832;2023-03-19T01:00:57;101055.09;;;10.68;100.00
69667;BME280;66534;52.370;4.832;2023-03-19T01:01:28;101059.47;;;10.67;100.00
69667;BME280;66534;52.370;4.832;2023-03-19T01:01:58;101058.69;;;10.65;100.00
69667;BME280;66534;52.370;4.832;2023-03-19T01:02:29;101058.63;;;10.67;100.00
69667;BME280;66534;52.370;4.832;2023-03-19T01:03:01;101059.38;;;10.70;100.00
69667;BME280;66534;52.370;4.832;2023-03-19T01:03:32;101051.34;;;10.73;100.00
69667;BME280;66534;52.370;4.832;2023-03-19T01:04:03;101058.56;;;10.68;100.00
69667;BME280;66534;52.370;4.832;2023-03-19T01:04:34;101057.81;;;10.65;100.00
69667;BME280;66534;52.370;4.832;2023-03-19T01:05:05;101059.69;;;10.63;100.00
69667;BME280;66534;52.370;4.832;2023-03-19T01:05:37;101061.31;;;10.65;100.00
69667;BME280;66534;52.370;4.832;2023-03-19T01:06:07;101065.16;;;10.57;100.00
69667;BME280;66534;52.370;4.832;2023-03-19T01:06:38;101059.19;;;10.53;100.00
69667;BME280;66534;52.370;4.832;2023-03-19T01:07:08;101058.13;;;10.57;100.00
69667;BME280;66534;52.370;4.832;2023-03-19T01:07:39;101057.78;;;10.66;100.00
69667;BME280;66534;52.370;4.832;2023-03-19T01:08:09;101060.25;;;10.69;100.00
69667;BME280;66534;52.370;4.832;2023-03-19T01:08:40;101060.34;;;10.68;100.00
69667;BME280;66534;52.370;4.832;2023-03-19T01:09:10;101055.41;;;10.60;100.00
69667;BME280;66534;52.370;4.832;2023-03-19T01:09:41;101068.63;;;10.57;100.00
69667;BME280;66534;52.370;4.832;2023-03-19T01:10:11;101065.69;;;10.65;100.00
69667;BME280;66534;52.370;4.832;2023-03-19T01:10:42;101062.03;;;10.69;100.00
69667;BME280;66534;52.370;4.832;2023-03-19T01:11:14;101065.66;;;10.66;100.00
69667;BME280;66534;52.370;4.832;2023-03-19T01:11:46;101060.44;;;10.65;100.00
69667;BME280;66534;52.370;4.832;2023-03-19T01:12:16;101055.16;;;10.66;100.00
69667;BME280;66534;52.370;4.832;2023-03-19T01:12:48;101061.31;;;10.65;100.00
69667;BME280;66534;52.370;4.832;2023-03-19T01:13:19;101059.41;;;10.69;100.00
69667;BME280;66534;52.370;4.832;2023-03-19T01:13:50;101056.78;;;10.69;100.00
69667;BME280;66534;52.370;4.832;2023-03-19T01:14:20;101058.47;;;10.70;100.00
69667;BME280;66534;52.370;4.832;2023-03-19T01:14:51;101057.72;;;10.68;100.00
69667;BME280;66534;52.370;4.832;2023-03-19T01:15:21;101061.06;;;10.71;100.00
69667;BME280;66534;52.370;4.832;2023-03-19T01:15:52;101056.75;;;10.70;100.00
69667;BME280;66534;52.370;4.832;2023-03-19T01:16:22;101059.41;;;10.69;100.00
69667;BME280;66534;52.370;4.832;2023-03-19T01:16:53;101051.50;;;10.70;100.00
69667;BME280;66534;52.370;4.832;2023-03-19T01:17:23;101055.94;;;10.68;100.00
69667;BME280;66534;52.370;4.832;2023-03-19T01:17:54;101056.34;;;10.80;100.00
69667;BME280;66534;52.370;4.832;2023-03-19T01:18:24;101052.91;;;10.78;100.00
69667;BME280;66534;52.370;4.832;2023-03-19T01:18:56;101055.84;;;10.70;100.00
69667;BME280;66534;52.370;4.832;2023-03-19T01:19:27;101058.59;;;10.89;100.00
69667;BME280;66534;52.370;4.832;2023-03-19T01:19:59;101059.69;;;10.83;100.00
69667;BME280;66534;52.370;4.832;2023-03-19T01:20:29;101052.38;;;10.91;100.00
69667;BME280;66534;52.370;4.832;2023-03-19T01:21:00;101051.75;;;10.85;100.00
69667;BME280;66534;52.370;4.832;2023-03-19T01:21:31;101049.66;;;10.93;100.00
69667;BME280;66534;52.370;4.832;2023-03-19T01:22:01;101055.00;;;10.91;100.00
69667;BME280;66534;52.370;4.832;2023-03-19T01:22:36;101054.50;;;10.82;100.00
69667;BME280;66534;52.370;4.832;2023-03-19T01:23:06;101053.97;;;10.73;100.00
69667;BME280;66534;52.370;4.832;2023-03-19T01:23:37;101059.28;;;10.72;100.00
69667;BME280;66534;52.370;4.832;2023-03-19T01:24:08;101049.84;;;10.68;100.00
69667;BME280;66534;52.370;4.832;2023-03-19T01:24:39;101057.81;;;10.65;100.00
69667;BME280;66534;52.370;4.832;2023-03-19T01:25:10;101058.63;;;10.67;100.00
69667;BME280;66534;52.370;4.832;2023-03-19T01:25:42;101058.47;;;10.70;100.00
69667;BME280;66534;52.370;4.832;2023-03-19T01:26:12;101056.59;;;10.73;100.00
69667;BME280;66534;52.370;4.832;2023-03-19T01:26:42;101058.56;;;10.68;100.00
69667;BME280;66534;52.370;4.832;2023-03-19T01:27:13;101049.91;;;10.66;100.00
69667;BME280;66534;52.370;4.832;2023-03-19T01:27:43;101056.59;;;10.73;100.00
69667;BME280;66534;52.370;4.832;2023-03-19T01:28:14;101056.16;;;10.84;100.00
69667;BME280;66534;52.370;4.832;2023-03-19T01:28:44;101051.69;;;10.86;100.00
69667;BME280;66534;52.370;4.832;2023-03-19T01:29:15;101052.06;;;10.77;100.00
69667;BME280;66534;52.370;4.832;2023-03-19T01:29:45;101057.31;;;10.77;100.00
69667;BME280;66534;52.370;4.832;2023-03-19T01:30:16;101055.34;;;10.82;100.00
69667;BME280;66534;52.370;4.832;2023-03-19T01:30:46;101054.09;;;10.91;100.00
69667;BME280;66534;52.370;4.832;2023-03-19T01:31:17;101061.47;;;10.83;100.00
69667;BME280;66534;52.370;4.832;2023-03-19T01:31:48;101060.22;;;10.71;100.00
69667;BME280;66534;52.370;4.832;2023-03-19T01:32:18;101057.44;;;10.74;100.00
69667;BME280;66534;52.370;4.832;2023-03-19T01:32:49;101055.53;;;10.78;100.00
69667;BME280;66534;52.370;4.832;2023-03-19T01:33:19;101060.94;;;10.75;100.00
69667;BME280;66534;52.370;4.832;2023-03-19T01:33:50;101061.31;;;10.86;100.00
69667;BME280;66534;52.370;4.832;2023-03-19T01:34:20;101063.38;;;10.79;100.00
69667;BME280;66534;52.370;4.832;2023-03-19T01:34:52;101061.66;;;10.78;100.00
69667;BME280;66534;52.370;4.832;2023-03-19T01:35:22;101067.78;;;10.79;100.00
69667;BME280;66534;52.370;4.832;2023-03-19T01:35:53;101061.78;;;10.75;100.00
69667;BME280;66534;52.370;4.832;2023-03-19T01:36:23;101053.97;;;10.73;100.00
69667;BME280;66534;52.370;4.832;2023-03-19T01:36:55;101061.72;;;10.77;100.00
69667;BME280;66534;52.370;4.832;2023-03-19T01:37:25;101061.78;;;10.75;100.00
69667;BME280;66534;52.370;4.832;2023-03-19T01:37:56;101062.56;;;10.77;100.00
69667;BME280;66534;52.370;4.832;2023-03-19T01:38:27;101062.56;;;10.77;100.00
69667;BME280;66534;52.370;4.832;2023-03-19T01:38:57;101060.16;;;10.93;100.00
69667;BME280;66534;52.370;4.832;2023-03-19T01:39:28;101064.03;;;10.84;100.00
69667;BME280;66534;52.370;4.832;2023-03-19T01:39:58;101063.38;;;10.79;100.00
69667;BME280;66534;52.370;4.832;2023-03-19T01:40:28;101061.00;;;10.73;100.00
69667;BME280;66534;52.370;4.832;2023-03-19T01:41:01;101063.63;;;10.73;100.00
69667;BME280;66534;52.370;4.832;2023-03-19T01:41:31;101061.84;;;10.73;100.00
69667;BME280;66534;52.370;4.832;2023-03-19T01:42:02;101059.47;;;10.67;100.00
69667;BME280;66534;52.370;4.832;2023-03-19T01:42:33;101060.66;;;10.60;100.00
69667;BME280;66534;52.370;4.832;2023-03-19T01:43:12;101060.53;;;10.63;100.00
69667;BME280;66534;52.370;4.832;2023-03-19T01:43:50;101058.69;;;10.65;100.00
69667;BME280;66534;52.370;4.832;2023-03-19T01:44:24;101059.41;;;10.69;100.00
69667;BME280;66534;52.370;4.832;2023-03-19T01:44:57;101059.59;;;10.64;100.00
69667;BME280;66534;52.370;4.832;2023-03-19T01:45:30;101056.41;;;10.58;100.00
69667;BME280;66534;52.370;4.832;2023-03-19T01:46:26;101059.78;;;10.60;100.00
69667;BME280;66534;52.370;4.832;2023-03-19T01:47:00;101061.25;;;10.67;100.00
69667;BME280;66534;52.370;4.832;2023-03-19T01:47:36;101054.25;;;10.67;100.00
69667;BME280;66534;52.370;4.832;2023-03-19T01:48:21;101058.69;;;10.65;100.00
69667;BME280;66534;52.370;4.832;2023-03-19T01:49:09;101059.88;;;10.58;100.00
69667;BME280;66534;52.370;4.832;2023-03-19T01:49:41;101054.09;;;10.50;100.00
69667;BME280;66534;52.370;4.832;2023-03-19T01:50:23;101063.66;;;10.51;100.00
69667;BME280;66534;52.370;4.832;2023-03-19T01:50:58;101059.19;;;10.53;100.00
69667;BME280;66534;52.370;4.832;2023-03-19T01:51:30;101059.31;;;10.50;100.00
69667;BME280;66534;52.370;4.832;2023-03-19T01:52:03;101056.63;;;10.52;100.00
69667;BME280;66534;52.370;4.832;2023-03-19T01:52:36;101054.13;;;10.48;100.00
69667;BME280;66534;52.370;4.832;2023-03-19T01:53:07;101058.47;;;10.50;100.00
69667;BME280;66534;52.370;4.832;2023-03-19T01:53:40;101055.47;;;10.59;100.00
69667;BME280;66534;52.370;4.832;2023-03-19T01:54:16;101058.13;;;10.57;100.00
69667;BME280;66534;52.370;4.832;2023-03-19T01:54:49;101060.84;;;10.56;100.00
69667;BME280;66534;52.370;4.832;2023-03-19T01:55:22;101056.81;;;10.47;100.00
69667;BME280;66534;52.370;4.832;2023-03-19T01:55:54;101055.50;;;10.57;100.00
69667;BME280;66534;52.370;4.832;2023-03-19T01:56:30;101057.09;;;10.61;100.00
69667;BME280;66534;52.370;4.832;2023-03-19T01:57:06;101058.22;;;10.56;100.00
69667;BME280;66534;52.370;4.832;2023-03-19T01:57:38;101059.38;;;10.48;100.00
69667;BME280;66534;52.370;4.832;2023-03-19T01:58:09;101062.59;;;10.55;100.00
69667;BME280;66534;52.370;4.832;2023-03-19T01:58:40;101068.97;;;10.50;100.00
69667;BME280;66534;52.370;4.832;2023-03-19T01:59:15;101065.72;;;10.43;100.00
69667;BME280;66534;52.370;4.832;2023-03-19T01:59:53;101067.38;;;10.45;100.00
69667;BME280;66534;52.370;4.832;2023-03-19T02:00:25;101065.41;;;10.51;100.00
69667;BME280;66534;52.370;4.832;2023-03-19T02:00:57;101068.63;;;10.57;100.00
69667;BME280;66534;52.370;4.832;2023-03-19T02:01:27;101065.31;;;10.54;100.00
69667;BME280;66534;52.370;4.832;2023-03-19T02:02:46;101069.44;;;10.59;100.00
69667;BME280;66534;52.370;4.832;2023-03-19T02:03:04;101067.38;;;10.45;100.00
69667;BME280;66534;52.370;4.832;2023-03-19T02:03:36;101067.50;;;10.42;100.00
69667;BME280;66534;52.370;4.832;2023-03-19T02:04:08;101070.13;;;10.42;100.00
69667;BME280;66534;52.370;4.832;2023-03-19T02:04:39;101069.31;;;10.40;100.00
69667;BME280;66534;52.370;4.832;2023-03-19T02:05:13;101065.09;;;10.36;100.00
69667;BME280;66534;52.370;4.832;2023-03-19T02:05:54;101073.66;;;10.41;100.00
69667;BME280;66534;52.370;4.832;2023-03-19T02:06:26;101066.88;;;10.36;100.00
69667;BME280;66534;52.370;4.832;2023-03-19T02:06:59;101065.25;;;10.33;100.00
69667;BME280;66534;52.370;4.832;2023-03-19T02:07:32;101069.50;;;10.36;100.00
69667;BME280;66534;52.370;4.832;2023-03-19T02:08:06;101068.28;;;10.44;100.00
69667;BME280;66534;52.370;4.832;2023-03-19T02:08:40;101063.22;;;10.40;100.00
69667;BME280;66534;52.370;4.832;2023-03-19T02:09:11;101054.13;;;10.48;100.00
69667;BME280;66534;52.370;4.832;2023-03-19T02:09:43;101053.09;;;10.53;100.00
69667;BME280;66534;52.370;4.832;2023-03-19T02:10:15;101060.53;;;10.63;100.00
69667;BME280;66534;52.370;4.832;2023-03-19T02:10:47;101058.53;;;10.48;100.00
69667;BME280;66534;52.370;4.832;2023-03-19T02:11:18;101056.00;;;10.23;100.00
69667;BME280;66534;52.370;4.832;2023-03-19T02:11:49;101058.88;;;10.17;100.00
69667;BME280;66534;52.370;4.832;2023-03-19T02:12:20;101059.78;;;10.16;100.00
69667;BME280;66534;52.370;4.832;2023-03-19T02:12:51;101065.06;;;10.14;100.00
69667;BME280;66534;52.370;4.832;2023-03-19T02:13:22;101057.09;;;10.17;100.00
69667;BME280;66534;52.370;4.832;2023-03-19T02:13:52;101069.09;;;10.25;100.00
69667;BME280;66534;52.370;4.832;2023-03-19T02:14:23;101064.88;;;10.19;100.00
69667;BME280;66534;52.370;4.832;2023-03-19T02:14:53;101056.34;;;10.14;100.00
69667;BME280;66534;52.370;4.832;2023-03-19T02:15:24;101067.88;;;10.10;100.00
69667;BME280;66534;52.370;4.832;2023-03-19T02:15:56;101071.97;;;10.17;100.00
69667;BME280;66534;52.370;4.832;2023-03-19T02:16:27;101066.63;;;10.20;100.00
69667;BME280;66534;52.370;4.832;2023-03-19T02:16:57;101070.38;;;10.13;100.00
69667;BME280;66534;52.370;4.832;2023-03-19T02:17:28;101068.53;;;10.15;100.00
69667;BME280;66534;52.370;4.832;2023-03-19T02:18:00;101077.09;;;10.20;100.00
69667;BME280;66534;52.370;4.832;2023-03-19T02:18:30;101064.16;;;10.15;100.00
69667;BME280;66534;52.370;4.832;2023-03-19T02:19:01;101072.94;;;10.14;100.00
69667;BME280;66534;52.370;4.832;2023-03-19T02:20:33;101079.00;;;10.16;100.00
69667;BME280;66534;52.370;4.832;2023-03-19T02:21:15;101065.88;;;10.16;100.00
69667;BME280;66534;52.370;4.832;2023-03-19T02:21:47;101069.16;;;10.21;100.00
69667;BME280;66534;52.370;4.832;2023-03-19T02:22:20;101070.28;;;10.16;100.00
69667;BME280;66534;52.370;4.832;2023-03-19T02:23:13;101065.91;;;10.15;100.00
69667;BME280;66534;52.370;4.832;2023-03-19T02:23:52;101073.06;;;10.11;100.00
69667;BME280;66534;52.370;4.832;2023-03-19T02:24:44;101070.38;;;10.13;100.00
69667;BME280;66534;52.370;4.832;2023-03-19T02:25:24;101072.91;;;10.16;100.00
69667;BME280;66534;52.370;4.832;2023-03-19T02:26:17;101074.97;;;10.08;100.00
69667;BME280;66534;52.370;4.832;2023-03-19T02:26:50;101072.75;;;9.97;100.00
69667;BME280;66534;52.370;4.832;2023-03-19T02:27:21;101070.28;;;9.92;100.00
69667;BME280;66534;52.370;4.832;2023-03-19T02:27:52;101065.44;;;9.82;100.00
69667;BME280;66534;52.370;4.832;2023-03-19T02:28:22;101068.91;;;9.82;100.00
69667;BME280;66534;52.370;4.832;2023-03-19T02:28:53;101068.88;;;9.84;100.00
69667;BME280;66534;52.370;4.832;2023-03-19T02:29:24;101070.41;;;9.89;100.00
69667;BME280;66534;52.370;4.832;2023-03-19T02:29:55;101078.94;;;9.94;100.00
69667;BME280;66534;52.370;4.832;2023-03-19T02:30:30;101071.44;;;9.85;100.00
69667;BME280;66534;52.370;4.832;2023-03-19T02:31:02;101073.28;;;9.83;100.00
69667;BME280;66534;52.370;4.832;2023-03-19T02:31:32;101070.19;;;9.72;100.00
69667;BME280;66534;52.370;4.832;2023-03-19T02:32:03;101076.34;;;9.71;100.00
69667;BME280;66534;52.370;4.832;2023-03-19T02:32:33;101073.72;;;9.71;100.00
69667;BME280;66534;52.370;4.832;2023-03-19T02:33:04;101072.13;;;9.67;100.00
69667;BME280;66534;52.370;4.832;2023-03-19T02:33:35;101072.59;;;9.78;100.00
69667;BME280;66534;52.370;4.832;2023-03-19T02:34:39;101072.97;;;9.67;100.00
69667;BME280;66534;52.370;4.832;2023-03-19T02:35:11;101076.69;;;9.62;100.00
69667;BME280;66534;52.370;4.832;2023-03-19T02:35:41;101068.69;;;9.65;100.00
69667;BME280;66534;52.370;4.832;2023-03-19T02:36:16;101079.31;;;9.62;100.00
69667;BME280;66534;52.370;4.832;2023-03-19T02:36:50;101075.78;;;9.63;100.00
69667;BME280;66534;52.370;4.832;2023-03-19T02:37:24;101068.53;;;9.69;100.00
69667;BME280;66534;52.370;4.832;2023-03-19T02:37:57;101085.44;;;9.61;100.00
69667;BME280;66534;52.370;4.832;2023-03-19T02:38:27;101076.78;;;9.59;100.00
69667;BME280;66534;52.370;4.832;2023-03-19T02:39:02;101079.53;;;9.56;100.00
69667;BME280;66534;52.370;4.832;2023-03-19T02:40:23;101079.47;;;9.57;100.00
69667;BME280;66534;52.370;4.832;2023-03-19T02:41:05;101071.66;;;9.56;100.00
69667;BME280;66534;52.370;4.832;2023-03-19T02:41:37;101078.03;;;9.48;100.00
69667;BME280;66534;52.370;4.832;2023-03-19T02:42:11;101076.28;;;9.49;100.00
69667;BME280;66534;52.370;4.832;2023-03-19T02:42:43;101082.31;;;9.51;100.00
69667;BME280;66534;52.370;4.832;2023-03-19T02:43:14;101080.78;;;9.45;100.00
69667;BME280;66534;52.370;4.832;2023-03-19T02:43:45;101077.41;;;9.42;100.00
69667;BME280;66534;52.370;4.832;2023-03-19T02:44:15;101079.19;;;9.41;100.00
69667;BME280;66534;52.370;4.832;2023-03-19T02:44:48;101080.88;;;9.42;100.00
69667;BME280;66534;52.370;4.832;2023-03-19T02:45:19;101077.25;;;9.46;100.00
69667;BME280;66534;52.370;4.832;2023-03-19T02:45:50;101083.50;;;9.42;100.00
69667;BME280;66534;52.370;4.832;2023-03-19T02:46:20;101071.34;;;9.40;100.00
69667;BME280;66534;52.370;4.832;2023-03-19T02:46:51;101075.75;;;9.39;100.00
69667;BME280;66534;52.370;4.832;2023-03-19T02:47:22;101068.97;;;9.34;100.00